Time;durP1;ratioP1;P1;durP2;ratioP2;P2;SDS_P1;SDS_P2;PMS_P1;PMS_P2;Temp;Humidity;BMP_temperature;BMP_pressure;BME280_temperature;BME280_humidity;BME280_pressure;Samples;Min_cycle;Max_cycle;Signal;HPM_P1;HPM_P2
2023/08/10 00:00:19;;;;;;;;;;;15.80;99.90;;;;;;7331111;19;109608;-65
2023/08/10 00:02:55;;;;;;;;;;;15.70;99.90;;;;;;7334045;19;111038;-69
2023/08/10 00:05:23;;;;;;;;;;;15.50;99.90;;;;;;7332101;19;109165;-64
2023/08/10 00:07:50;;;;;;;;;;;15.40;99.90;;;;;;7332616;19;108482;-65
2023/08/10 00:10:17;;;;;;;;;;;15.50;99.90;;;;;;7328391;19;109459;-65
2023/08/10 00:12:44;;;;;;;;;;;15.50;99.90;;;;;;7333989;19;110160;-64
2023/08/10 00:15:11;;;;;;;;;;;15.60;99.90;;;;;;7336007;19;109098;-64
2023/08/10 00:17:38;;;;;;;;;;;15.60;99.90;;;;;;7332218;19;109162;-64
2023/08/10 00:20:10;;;;;;;;;;;15.40;99.90;;;;;;7329316;19;109922;-64
2023/08/10 00:22:38;;;;;;;;;;;15.30;99.90;;;;;;7335441;19;109511;-64
2023/08/10 00:25:07;;;;;;;;;;;15.30;99.90;;;;;;7328077;19;111551;-64
2023/08/10 00:27:35;;;;;;;;;;;15.40;99.90;;;;;;7334910;19;108807;-63
2023/08/10 00:30:03;;;;;;;;;;;15.40;99.90;;;;;;7336106;19;110251;-64
2023/08/10 00:32:31;;;;;;;;;;;15.40;99.90;;;;;;7333488;19;110228;-64
2023/08/10 00:34:59;;;;;;;;;;;15.40;99.90;;;;;;7334031;19;108558;-64
2023/08/10 00:37:26;;;;;;;;;;;15.40;99.90;;;;;;7336419;19;109553;-64
2023/08/10 00:39:53;;;;;;;;;;;15.40;99.90;;;;;;7331899;19;108610;-64
2023/08/10 00:42:21;;;;;;;;;;;15.40;99.90;;;;;;7333263;19;109115;-64
2023/08/10 00:44:48;;;;;;;;;;;15.40;99.90;;;;;;7330871;19;109255;-64
2023/08/10 00:47:15;;;;;;;;;;;15.40;99.90;;;;;;7337805;19;110570;-65
2023/08/10 00:49:42;;;;;;;;;;;15.30;99.90;;;;;;7336343;19;108913;-64
2023/08/10 00:52:09;;;;;;;;;;;15.30;99.90;;;;;;7336615;19;109938;-64
2023/08/10 00:54:37;;;;;;;;;;;15.20;99.90;;;;;;7336045;19;108915;-64
2023/08/10 00:57:04;;;;;;;;;;;15.20;99.90;;;;;;7342915;19;110353;-64
2023/08/10 00:59:31;;;;;;;;;;;15.10;99.90;;;;;;7341579;19;110557;-64
2023/08/10 01:01:59;;;;;;;;;;;15.20;99.90;;;;;;7331523;19;108756;-64
2023/08/10 01:04:26;;;;;;;;;;;15.20;99.90;;;;;;7338779;19;109090;-64
2023/08/10 01:07:09;;;;;;;;;;;15.20;99.90;;;;;;7335347;19;108751;-66
2023/08/10 01:09:54;;;;;;;;;;;15.20;99.90;;;;;;7340747;19;108705;-65
2023/08/10 01:12:28;;;;;;;;;;;15.20;99.90;;;;;;7339098;19;109377;-64
2023/08/10 01:15:13;;;;;;;;;;;15.10;99.90;;;;;;7338228;19;108450;-65
2023/08/10 01:17:49;;;;;;;;;;;15.10;99.90;;;;;;7340408;19;108855;-65
2023/08/10 01:20:17;;;;;;;;;;;15.10;99.90;;;;;;7334901;19;109113;-64
2023/08/10 01:22:49;;;;;;;;;;;14.90;99.90;;;;;;7343867;19;108571;-64
2023/08/10 01:25:16;;;;;;;;;;;14.90;99.90;;;;;;7339103;19;109239;-64
2023/08/10 01:27:44;;;;;;;;;;;14.90;99.90;;;;;;7337458;19;109040;-65
2023/08/10 01:30:12;;;;;;;;;;;14.90;99.90;;;;;;7339259;19;111727;-64
2023/08/10 01:32:39;;;;;;;;;;;14.90;99.90;;;;;;7338422;19;109578;-64
2023/08/10 01:35:06;;;;;;;;;;;14.90;99.90;;;;;;7339495;19;113405;-64
2023/08/10 01:37:34;;;;;;;;;;;14.90;99.90;;;;;;7337856;19;108712;-64
2023/08/10 01:40:01;;;;;;;;;;;14.90;99.90;;;;;;7330668;19;110170;-64
2023/08/10 01:42:28;;;;;;;;;;;14.90;99.90;;;;;;7337809;19;108565;-63
2023/08/10 01:44:55;;;;;;;;;;;14.90;99.90;;;;;;7344240;19;109722;-65
2023/08/10 01:47:27;;;;;;;;;;;14.90;99.90;;;;;;7337558;19;109403;-65
2023/08/10 01:50:00;;;;;;;;;;;14.90;99.90;;;;;;7335031;19;108774;-65
2023/08/10 01:52:30;;;;;;;;;;;14.90;99.90;;;;;;7337451;19;109293;-65
2023/08/10 01:54:58;;;;;;;;;;;14.80;99.90;;;;;;7331602;19;108585;-64
2023/08/10 01:57:28;;;;;;;;;;;14.60;99.90;;;;;;7336552;19;109566;-64
2023/08/10 01:59:56;;;;;;;;;;;14.50;99.90;;;;;;7338685;19;110206;-65
2023/08/10 02:02:24;;;;;;;;;;;14.50;99.90;;;;;;7337454;19;109528;-64
2023/08/10 02:04:51;;;;;;;;;;;14.40;99.90;;;;;;7343661;19;109732;-64
2023/08/10 02:07:18;;;;;;;;;;;14.40;99.90;;;;;;7337190;19;108491;-64
2023/08/10 02:09:45;;;;;;;;;;;14.30;99.90;;;;;;7336499;19;108606;-64
2023/08/10 02:12:13;;;;;;;;;;;14.20;99.90;;;;;;7338104;19;110504;-64
2023/08/10 02:14:40;;;;;;;;;;;14.30;99.90;;;;;;7339685;19;109794;-64
2023/08/10 02:17:07;;;;;;;;;;;14.40;99.90;;;;;;7336796;19;110638;-64
2023/08/10 02:19:34;;;;;;;;;;;14.40;99.90;;;;;;7338726;19;109080;-64
2023/08/10 02:22:01;;;;;;;;;;;14.40;99.90;;;;;;7333607;19;109114;-64
2023/08/10 02:24:29;;;;;;;;;;;14.40;99.90;;;;;;7335780;19;108891;-64
2023/08/10 02:26:56;;;;;;;;;;;14.40;99.90;;;;;;7340449;19;113455;-65
2023/08/10 02:29:23;;;;;;;;;;;14.40;99.90;;;;;;7331589;19;108406;-64
2023/08/10 02:31:51;;;;;;;;;;;14.40;99.90;;;;;;7335901;19;111943;-64
2023/08/10 02:34:19;;;;;;;;;;;14.40;99.90;;;;;;7338133;19;109176;-64
2023/08/10 02:36:46;;;;;;;;;;;14.40;99.90;;;;;;7336068;19;109790;-65
2023/08/10 02:39:14;;;;;;;;;;;14.30;99.90;;;;;;7331611;19;111500;-64
2023/08/10 02:41:41;;;;;;;;;;;14.20;99.90;;;;;;7336946;19;109637;-64
2023/08/10 02:44:09;;;;;;;;;;;14.20;99.90;;;;;;7334693;19;109001;-64
2023/08/10 02:46:36;;;;;;;;;;;14.20;99.90;;;;;;7332472;19;110204;-64
2023/08/10 02:49:03;;;;;;;;;;;14.30;99.90;;;;;;7340663;19;108461;-64
2023/08/10 02:51:30;;;;;;;;;;;14.30;99.90;;;;;;7331551;19;109556;-64
2023/08/10 02:53:57;;;;;;;;;;;14.30;99.90;;;;;;7333908;19;110026;-64
2023/08/10 02:56:24;;;;;;;;;;;14.30;99.90;;;;;;7336425;19;109750;-65
2023/08/10 02:58:51;;;;;;;;;;;14.20;99.90;;;;;;7337698;19;110046;-65
2023/08/10 03:01:18;;;;;;;;;;;14.00;99.90;;;;;;7331300;19;109936;-65
2023/08/10 03:03:46;;;;;;;;;;;13.90;99.90;;;;;;7332812;19;108983;-63
2023/08/10 03:06:14;;;;;;;;;;;13.90;99.90;;;;;;7334659;19;109777;-63
2023/08/10 03:08:41;;;;;;;;;;;13.90;99.90;;;;;;7329864;19;109970;-63
2023/08/10 03:11:08;;;;;;;;;;;13.90;99.90;;;;;;7340330;19;108910;-62
2023/08/10 03:13:36;;;;;;;;;;;13.80;99.90;;;;;;7332465;19;108876;-63
2023/08/10 03:16:03;;;;;;;;;;;13.80;99.90;;;;;;7337202;19;110476;-63
2023/08/10 03:18:31;;;;;;;;;;;13.90;99.90;;;;;;7334233;19;111640;-63
2023/08/10 03:20:58;;;;;;;;;;;13.90;99.90;;;;;;7335494;19;109558;-64
2023/08/10 03:23:26;;;;;;;;;;;13.80;99.90;;;;;;7333533;19;109899;-70
2023/08/10 03:25:54;;;;;;;;;;;13.80;99.90;;;;;;7334338;19;109255;-71
2023/08/10 03:28:21;;;;;;;;;;;13.90;99.90;;;;;;7333432;19;109837;-69
2023/08/10 03:30:48;;;;;;;;;;;13.80;99.90;;;;;;7328601;19;109930;-70
2023/08/10 03:33:15;;;;;;;;;;;13.90;99.90;;;;;;7340354;19;109316;-69
2023/08/10 03:35:42;;;;;;;;;;;13.80;99.90;;;;;;7334868;19;109329;-63
2023/08/10 03:38:10;;;;;;;;;;;13.80;99.90;;;;;;7331769;19;113898;-63
2023/08/10 03:40:37;;;;;;;;;;;13.80;99.90;;;;;;7334541;19;109147;-63
2023/08/10 03:43:06;;;;;;;;;;;13.80;99.90;;;;;;7332615;19;109887;-63
2023/08/10 03:45:33;;;;;;;;;;;13.80;99.90;;;;;;7331020;19;112745;-63
2023/08/10 03:48:01;;;;;;;;;;;13.80;99.90;;;;;;7336095;19;109217;-63
2023/08/10 03:50:28;;;;;;;;;;;13.80;99.90;;;;;;7331924;19;108852;-61
2023/08/10 03:52:55;;;;;;;;;;;13.90;99.90;;;;;;7332735;19;109430;-63
2023/08/10 03:55:22;;;;;;;;;;;13.90;99.90;;;;;;7336873;19;109355;-63
2023/08/10 03:57:49;;;;;;;;;;;13.90;99.90;;;;;;7333091;19;110489;-63
2023/08/10 04:00:16;;;;;;;;;;;13.80;99.90;;;;;;7331383;19;111933;-63
2023/08/10 04:02:44;;;;;;;;;;;13.80;99.90;;;;;;7331175;19;109854;-63
2023/08/10 04:05:11;;;;;;;;;;;13.80;99.90;;;;;;7334632;19;109888;-63
2023/08/10 04:07:39;;;;;;;;;;;13.80;99.90;;;;;;7328779;19;108897;-63
2023/08/10 04:10:07;;;;;;;;;;;13.80;99.90;;;;;;7333163;19;108944;-63
2023/08/10 04:12:34;;;;;;;;;;;13.80;99.90;;;;;;7330573;19;109688;-63
2023/08/10 04:15:02;;;;;;;;;;;13.80;99.90;;;;;;7337050;19;109582;-63
2023/08/10 04:17:30;;;;;;;;;;;13.80;99.90;;;;;;7331029;19;110691;-63
2023/08/10 04:19:57;;;;;;;;;;;13.80;99.90;;;;;;7332268;19;109534;-63
2023/08/10 04:22:24;;;;;;;;;;;13.80;99.90;;;;;;7333024;19;109413;-63
2023/08/10 04:24:51;;;;;;;;;;;13.80;99.90;;;;;;7332849;19;109523;-63
2023/08/10 04:27:18;;;;;;;;;;;13.80;99.90;;;;;;7332800;19;108533;-66
2023/08/10 04:29:46;;;;;;;;;;;13.80;99.90;;;;;;7331461;19;109306;-63
2023/08/10 04:32:13;;;;;;;;;;;13.80;99.90;;;;;;7334944;19;109239;-63
2023/08/10 04:34:41;;;;;;;;;;;13.80;99.90;;;;;;7330869;19;110714;-64
2023/08/10 04:37:08;;;;;;;;;;;13.80;99.90;;;;;;7338509;19;109814;-63
2023/08/10 04:39:36;;;;;;;;;;;13.80;99.90;;;;;;7329995;19;109017;-63
2023/08/10 04:42:03;;;;;;;;;;;13.80;99.90;;;;;;7331642;19;108837;-63
2023/08/10 04:44:31;;;;;;;;;;;13.90;99.90;;;;;;7330676;19;109778;-63
2023/08/10 04:46:58;;;;;;;;;;;13.80;99.90;;;;;;7329144;19;108529;-63
2023/08/10 04:49:28;;;;;;;;;;;13.80;99.90;;;;;;7333324;19;109505;-63
2023/08/10 04:51:56;;;;;;;;;;;13.80;99.90;;;;;;7323115;19;110511;-63
2023/08/10 04:54:23;;;;;;;;;;;13.80;99.90;;;;;;7333566;19;109970;-63
2023/08/10 04:56:52;;;;;;;;;;;13.80;99.90;;;;;;7328832;19;108997;-63
2023/08/10 04:59:19;;;;;;;;;;;13.80;99.90;;;;;;7336231;19;110642;-63
2023/08/10 05:01:46;;;;;;;;;;;13.80;99.90;;;;;;7328453;19;108806;-63
2023/08/10 05:04:14;;;;;;;;;;;13.80;99.90;;;;;;7328891;19;109896;-63
2023/08/10 05:06:42;;;;;;;;;;;13.90;99.90;;;;;;7329938;19;108858;-63
2023/08/10 05:09:09;;;;;;;;;;;13.90;99.90;;;;;;7331920;19;108731;-63
2023/08/10 05:11:36;;;;;;;;;;;13.90;99.90;;;;;;7326892;19;114814;-67
2023/08/10 05:14:04;;;;;;;;;;;14.00;99.90;;;;;;7331490;19;109446;-67
2023/08/10 05:16:31;;;;;;;;;;;14.10;99.90;;;;;;7330033;19;108821;-73
2023/08/10 05:18:59;;;;;;;;;;;14.20;99.90;;;;;;7332770;19;109355;-70
2023/08/10 05:21:26;;;;;;;;;;;14.20;99.90;;;;;;7333495;19;109469;-72
2023/08/10 05:23:53;;;;;;;;;;;14.20;99.90;;;;;;7329939;19;109223;-69
2023/08/10 05:26:20;;;;;;;;;;;14.20;99.90;;;;;;7331148;19;109877;-72
2023/08/10 05:28:47;;;;;;;;;;;14.20;99.90;;;;;;7330991;19;108858;-66
2023/08/10 05:31:14;;;;;;;;;;;14.20;99.90;;;;;;7329664;19;111048;-72
2023/08/10 05:33:42;;;;;;;;;;;14.20;99.90;;;;;;7337171;19;110384;-69
2023/08/10 05:36:09;;;;;;;;;;;14.20;99.90;;;;;;7336857;19;109195;-73
2023/08/10 05:38:38;;;;;;;;;;;14.30;99.90;;;;;;7336676;19;109605;-67
2023/08/10 05:41:05;;;;;;;;;;;14.30;99.90;;;;;;7337478;19;110184;-66
2023/08/10 05:43:32;;;;;;;;;;;14.40;99.90;;;;;;7340788;19;109576;-67
2023/08/10 05:45:59;;;;;;;;;;;14.40;99.90;;;;;;7334902;19;108560;-63
2023/08/10 05:48:27;;;;;;;;;;;14.50;99.90;;;;;;7334383;19;109001;-65
2023/08/10 05:50:54;;;;;;;;;;;14.60;99.90;;;;;;7334567;19;110613;-65
2023/08/10 05:53:21;;;;;;;;;;;14.70;99.90;;;;;;7337644;19;108881;-66
2023/08/10 05:55:49;;;;;;;;;;;14.80;99.90;;;;;;7334877;19;111392;-68
2023/08/10 05:58:22;;;;;;;;;;;14.90;99.90;;;;;;7339116;19;109224;-82
2023/08/10 06:00:58;;;;;;;;;;;15.00;99.90;;;;;;7331996;19;109854;-81
2023/08/10 06:03:25;;;;;;;;;;;15.20;99.90;;;;;;7329653;19;109250;-82
2023/08/10 06:05:53;;;;;;;;;;;15.30;99.90;;;;;;7336293;19;111087;-82
2023/08/10 06:08:20;;;;;;;;;;;15.40;99.90;;;;;;7331819;19;109094;-82
2023/08/10 06:10:50;;;;;;;;;;;15.50;99.90;;;;;;7330390;19;113839;-81
2023/08/10 06:13:18;;;;;;;;;;;15.60;99.90;;;;;;7329282;19;109190;-82
2023/08/10 06:15:48;;;;;;;;;;;15.70;99.90;;;;;;7329789;19;109257;-82
2023/08/10 06:18:16;;;;;;;;;;;15.80;99.90;;;;;;7331434;19;111015;-82
2023/08/10 06:20:44;;;;;;;;;;;15.90;99.90;;;;;;7330654;19;109818;-82
2023/08/10 06:23:12;;;;;;;;;;;16.00;99.90;;;;;;7327261;19;109257;-82
2023/08/10 06:25:43;;;;;;;;;;;16.10;99.90;;;;;;7335278;19;111102;-82
2023/08/10 06:28:10;;;;;;;;;;;16.20;99.90;;;;;;7328817;19;108890;-82
2023/08/10 06:30:37;;;;;;;;;;;16.30;99.90;;;;;;7330949;19;110243;-83
2023/08/10 06:33:04;;;;;;;;;;;16.30;99.90;;;;;;7326222;19;110479;-82
2023/08/10 06:35:35;;;;;;;;;;;16.50;99.90;;;;;;7330663;19;114991;-80
2023/08/10 06:38:05;;;;;;;;;;;16.60;99.90;;;;;;7316471;19;110284;-82
2023/08/10 06:40:32;;;;;;;;;;;16.70;99.90;;;;;;7327148;19;109210;-82
2023/08/10 06:42:59;;;;;;;;;;;16.80;99.90;;;;;;7323515;19;112411;-82
2023/08/10 06:45:26;;;;;;;;;;;16.90;99.90;;;;;;7327298;19;115458;-83
2023/08/10 06:47:54;;;;;;;;;;;17.10;99.90;;;;;;7335163;19;109323;-84
2023/08/10 06:50:23;;;;;;;;;;;17.20;99.90;;;;;;7325829;19;110688;-83
2023/08/10 06:52:50;;;;;;;;;;;17.40;99.90;;;;;;7329060;19;110509;-83
2023/08/10 06:55:17;;;;;;;;;;;17.50;99.90;;;;;;7321262;19;110518;-83
2023/08/10 06:57:47;;;;;;;;;;;17.60;99.90;;;;;;7328006;19;110185;-83
2023/08/10 07:00:19;;;;;;;;;;;17.70;99.90;;;;;;7325183;19;110161;-84
2023/08/10 07:02:50;;;;;;;;;;;17.90;99.90;;;;;;7328184;19;110937;-84
2023/08/10 07:05:17;;;;;;;;;;;17.90;99.90;;;;;;7324456;19;113139;-84
2023/08/10 07:16:02;;;;;;;;;;;18.30;99.90;;;;;;7326597;19;110060;-66
2023/08/10 07:18:30;;;;;;;;;;;18.40;99.90;;;;;;7335412;19;112397;-66
2023/08/10 07:20:57;;;;;;;;;;;18.50;99.90;;;;;;7331178;19;109221;-66
2023/08/10 07:23:24;;;;;;;;;;;18.50;99.90;;;;;;7335552;19;109650;-66
2023/08/10 07:25:54;;;;;;;;;;;18.60;99.90;;;;;;7337648;19;109975;-66
2023/08/10 07:28:23;;;;;;;;;;;18.70;99.90;;;;;;7332654;19;114594;-66
2023/08/10 07:30:50;;;;;;;;;;;18.80;99.90;;;;;;7335503;19;109114;-66
2023/08/10 07:33:18;;;;;;;;;;;18.90;99.90;;;;;;7339848;19;111177;-66
2023/08/10 07:35:46;;;;;;;;;;;19.00;99.90;;;;;;7336502;19;108674;-65
2023/08/10 07:38:14;;;;;;;;;;;19.20;99.90;;;;;;7334355;19;109889;-66
2023/08/10 07:40:42;;;;;;;;;;;19.30;99.90;;;;;;7333227;19;109243;-66
2023/08/10 07:43:09;;;;;;;;;;;19.30;99.90;;;;;;7332422;19;110691;-67
2023/08/10 07:45:37;;;;;;;;;;;19.50;99.90;;;;;;7333161;19;110346;-66
2023/08/10 07:48:04;;;;;;;;;;;19.60;99.90;;;;;;7334695;19;110083;-67
2023/08/10 07:50:31;;;;;;;;;;;19.70;99.90;;;;;;7334162;19;110088;-66
2023/08/10 07:52:59;;;;;;;;;;;19.80;99.90;;;;;;7335224;19;110039;-67
2023/08/10 07:55:26;;;;;;;;;;;19.90;99.90;;;;;;7336774;19;108500;-66
2023/08/10 07:57:53;;;;;;;;;;;19.90;99.90;;;;;;7333657;19;109119;-67
2023/08/10 08:00:20;;;;;;;;;;;20.00;99.90;;;;;;7333460;19;108875;-66
2023/08/10 08:02:49;;;;;;;;;;;20.10;99.90;;;;;;7333941;19;109866;-67
2023/08/10 08:05:17;;;;;;;;;;;20.20;99.90;;;;;;7335751;19;109842;-67
2023/08/10 08:07:44;;;;;;;;;;;20.30;99.90;;;;;;7333296;19;110564;-67
2023/08/10 08:10:11;;;;;;;;;;;20.30;99.90;;;;;;7334476;19;110755;-67
2023/08/10 08:12:38;;;;;;;;;;;20.40;99.90;;;;;;7333129;19;110129;-67
2023/08/10 08:15:06;;;;;;;;;;;20.40;99.90;;;;;;7334125;19;110565;-67
2023/08/10 08:17:52;;;;;;;;;;;20.40;99.90;;;;;;7339415;19;109987;-67
2023/08/10 08:20:19;;;;;;;;;;;20.50;99.90;;;;;;7332296;19;109161;-67
2023/08/10 08:22:46;;;;;;;;;;;20.60;99.90;;;;;;7332331;19;108386;-69
2023/08/10 08:25:13;;;;;;;;;;;20.60;99.90;;;;;;7335719;19;109807;-67
2023/08/10 08:27:40;;;;;;;;;;;20.70;99.90;;;;;;7330850;19;109396;-67
2023/08/10 08:30:08;;;;;;;;;;;20.80;99.90;;;;;;7330601;19;108726;-72
2023/08/10 08:32:35;;;;;;;;;;;20.90;99.90;;;;;;7330256;19;109415;-73
2023/08/10 08:35:16;;;;;;;;;;;20.90;99.90;;;;;;7336914;19;111086;-72
2023/08/10 08:37:44;;;;;;;;;;;21.10;99.90;;;;;;7336110;19;108415;-73
2023/08/10 08:40:12;;;;;;;;;;;21.10;99.90;;;;;;7333327;19;108539;-72
2023/08/10 08:42:40;;;;;;;;;;;21.10;99.90;;;;;;7329143;19;110815;-72
2023/08/10 08:45:07;;;;;;;;;;;21.20;99.90;;;;;;7333791;19;109844;-72
2023/08/10 08:47:35;;;;;;;;;;;21.30;99.90;;;;;;7334499;19;110292;-73
2023/08/10 08:50:03;;;;;;;;;;;21.40;99.90;;;;;;7336457;19;108513;-73
2023/08/10 08:52:30;;;;;;;;;;;21.50;99.90;;;;;;7332333;19;109769;-73
2023/08/10 08:54:58;;;;;;;;;;;21.50;99.90;;;;;;7334645;19;110120;-73
2023/08/10 08:57:25;;;;;;;;;;;21.60;99.90;;;;;;7332938;19;110603;-72
2023/08/10 08:59:52;;;;;;;;;;;21.70;99.90;;;;;;7337280;19;110072;-72
2023/08/10 09:02:19;;;;;;;;;;;21.70;99.90;;;;;;7335839;19;110383;-72
2023/08/10 09:04:51;;;;;;;;;;;21.80;99.90;;;;;;7334112;19;109977;-72
2023/08/10 09:07:18;;;;;;;;;;;21.90;99.90;;;;;;7332092;19;110628;-72
2023/08/10 09:09:46;;;;;;;;;;;22.00;99.90;;;;;;7342207;19;108527;-71
2023/08/10 09:12:29;;;;;;;;;;;22.10;99.90;;;;;;7340530;19;110470;-72
2023/08/10 09:15:03;;;;;;;;;;;22.10;99.90;;;;;;7340743;19;109769;-72
2023/08/10 09:17:34;;;;;;;;;;;22.10;99.90;;;;;;7339355;19;109448;-72
2023/08/10 09:20:04;;;;;;;;;;;22.20;99.90;;;;;;7340322;19;109452;-72
2023/08/10 09:22:34;;;;;;;;;;;22.30;99.90;;;;;;7343302;19;111594;-72
2023/08/10 09:25:01;;;;;;;;;;;22.40;99.90;;;;;;7339097;19;109241;-72
2023/08/10 09:27:29;;;;;;;;;;;22.40;99.90;;;;;;7339445;19;108453;-72
2023/08/10 09:29:57;;;;;;;;;;;22.60;99.90;;;;;;7341604;19;109539;-71
2023/08/10 09:32:25;;;;;;;;;;;22.60;99.90;;;;;;7337967;19;110547;-72
2023/08/10 09:34:52;;;;;;;;;;;22.70;99.90;;;;;;7341764;19;108681;-72
2023/08/10 09:37:20;;;;;;;;;;;22.80;99.90;;;;;;7341354;19;109411;-72
2023/08/10 09:39:52;;;;;;;;;;;22.80;99.90;;;;;;7338542;19;111272;-72
2023/08/10 09:42:19;;;;;;;;;;;22.80;99.90;;;;;;7337780;19;109546;-72
2023/08/10 09:44:48;;;;;;;;;;;22.90;99.90;;;;;;7345633;19;108764;-72
2023/08/10 09:47:15;;;;;;;;;;;23.00;99.90;;;;;;7340931;19;108551;-71
2023/08/10 09:49:51;;;;;;;;;;;23.10;99.90;;;;;;7340208;19;108557;-71
2023/08/10 09:52:19;;;;;;;;;;;23.20;99.90;;;;;;7338730;19;110186;-72
2023/08/10 09:54:47;;;;;;;;;;;23.30;99.90;;;;;;7339048;19;109463;-72
2023/08/10 09:57:15;;;;;;;;;;;23.30;99.90;;;;;;7338064;19;108552;-72
2023/08/10 09:59:42;;;;;;;;;;;23.50;99.90;;;;;;7338958;19;110111;-72
2023/08/10 10:02:11;;;;;;;;;;;23.50;99.90;;;;;;7340396;19;108722;-72
2023/08/10 10:04:38;;;;;;;;;;;23.50;99.90;;;;;;7338063;19;108861;-73
2023/08/10 10:07:06;;;;;;;;;;;23.60;99.90;;;;;;7343173;19;109906;-72
2023/08/10 10:09:37;;;;;;;;;;;23.60;99.90;;;;;;7336132;19;109329;-72
2023/08/10 10:12:08;;;;;;;;;;;23.70;99.90;;;;;;7338362;19;110732;-72
2023/08/10 10:14:40;;;;;;;;;;;23.70;99.90;;;;;;7339328;19;108875;-73
2023/08/10 10:17:15;;;;;;;;;;;23.80;99.90;;;;;;7335442;19;108830;-71
2023/08/10 10:19:43;;;;;;;;;;;23.80;99.90;;;;;;7340794;19;111669;-72
2023/08/10 10:22:11;;;;;;;;;;;23.90;99.90;;;;;;7337652;19;110951;-71
2023/08/10 10:24:41;;;;;;;;;;;23.90;99.90;;;;;;7340540;19;108592;-71
2023/08/10 10:27:11;;;;;;;;;;;23.90;99.90;;;;;;7341362;19;108990;-71
2023/08/10 10:29:58;;;;;;;;;;;23.90;99.90;;;;;;7341850;19;109462;-71
2023/08/10 10:32:25;;;;;;;;;;;23.90;99.90;;;;;;7338078;19;109837;-72
2023/08/10 10:34:53;;;;;;;;;;;23.90;99.90;;;;;;7339282;19;108802;-72
2023/08/10 10:37:26;;;;;;;;;;;24.00;99.90;;;;;;7338479;19;109093;-73
2023/08/10 10:40:12;;;;;;;;;;;24.10;99.90;;;;;;7336365;19;109340;-71
2023/08/10 10:42:57;;;;;;;;;;;24.20;99.90;;;;;;7339046;19;108416;-71
2023/08/10 10:45:24;;;;;;;;;;;24.30;99.90;;;;;;7337227;19;109203;-71
2023/08/10 10:47:54;;;;;;;;;;;24.40;99.90;;;;;;7336355;19;112674;-71
2023/08/10 10:50:28;;;;;;;;;;;24.50;99.90;;;;;;7344237;19;110062;-72
2023/08/10 10:52:57;;;;;;;;;;;24.50;99.90;;;;;;7334782;19;109578;-71
2023/08/10 10:55:26;;;;;;;;;;;24.60;99.90;;;;;;7337227;19;109280;-72
2023/08/10 10:57:53;;;;;;;;;;;24.70;99.90;;;;;;7338017;19;108724;-71
2023/08/10 11:00:22;;;;;;;;;;;24.70;99.90;;;;;;7333632;19;110702;-71
2023/08/10 11:02:50;;;;;;;;;;;24.70;99.90;;;;;;7333072;19;109594;-70
2023/08/10 11:05:18;;;;;;;;;;;24.60;99.90;;;;;;7337502;19;108863;-71
2023/08/10 11:07:46;;;;;;;;;;;24.50;99.90;;;;;;7332793;19;110603;-70
2023/08/10 11:10:13;;;;;;;;;;;24.60;99.90;;;;;;7337647;19;108800;-71
2023/08/10 11:12:44;;;;;;;;;;;24.70;99.90;;;;;;7338681;19;108637;-70
2023/08/10 11:15:12;;;;;;;;;;;24.70;99.90;;;;;;7336450;19;110122;-71
2023/08/10 11:17:41;;;;;;;;;;;24.70;99.90;;;;;;7335205;19;108505;-71
2023/08/10 11:20:15;;;;;;;;;;;24.80;99.90;;;;;;7336091;19;110220;-70
2023/08/10 11:22:43;;;;;;;;;;;25.00;99.90;;;;;;7335493;19;109013;-71
2023/08/10 11:25:11;;;;;;;;;;;25.10;99.90;;;;;;7334456;19;109010;-71
2023/08/10 11:27:43;;;;;;;;;;;25.10;99.90;;;;;;7337578;19;110070;-71
2023/08/10 11:30:11;;;;;;;;;;;25.10;99.90;;;;;;7336151;19;108937;-70
2023/08/10 11:32:39;;;;;;;;;;;25.10;99.90;;;;;;7331801;19;109355;-71
2023/08/10 11:35:10;;;;;;;;;;;25.10;99.90;;;;;;7342819;19;112314;-71
2023/08/10 11:37:41;;;;;;;;;;;25.10;99.90;;;;;;7333134;19;108715;-71
2023/08/10 11:40:17;;;;;;;;;;;25.10;99.90;;;;;;7331957;19;110504;-70
2023/08/10 11:43:02;;;;;;;;;;;25.30;99.90;;;;;;7332015;19;108911;-71
2023/08/10 11:45:30;;;;;;;;;;;25.30;99.90;;;;;;7334512;19;109717;-71
2023/08/10 11:47:57;;;;;;;;;;;25.40;99.90;;;;;;7334749;19;110024;-70
2023/08/10 11:50:29;;;;;;;;;;;25.50;99.90;;;;;;7335243;19;108804;-70
2023/08/10 11:53:00;;;;;;;;;;;25.50;99.90;;;;;;7335984;19;112481;-71
2023/08/10 11:55:27;;;;;;;;;;;25.60;99.90;;;;;;7333391;19;110229;-70
2023/08/10 11:57:55;;;;;;;;;;;25.80;99.90;;;;;;7344422;19;109189;-71
2023/08/10 12:00:22;;;;;;;;;;;25.90;99.90;;;;;;7332910;19;112527;-71
2023/08/10 12:02:55;;;;;;;;;;;26.00;99.90;;;;;;7335160;19;109879;-70
2023/08/10 12:05:34;;;;;;;;;;;26.20;99.90;;;;;;7334747;19;109380;-70
2023/08/10 12:08:02;;;;;;;;;;;26.30;99.90;;;;;;7335480;19;109146;-69
2023/08/10 12:10:34;;;;;;;;;;;26.40;99.90;;;;;;7333947;19;109112;-70
2023/08/10 12:13:02;;;;;;;;;;;26.50;99.90;;;;;;7330677;19;110031;-71
2023/08/10 12:15:31;;;;;;;;;;;26.50;99.90;;;;;;7335740;19;109483;-70
2023/08/10 12:18:00;;;;;;;;;;;26.60;99.90;;;;;;7335376;19;108449;-70
2023/08/10 12:20:27;;;;;;;;;;;26.50;99.90;;;;;;7338874;19;113410;-68
2023/08/10 12:22:54;;;;;;;;;;;26.50;99.90;;;;;;7329915;19;109048;-68
2023/08/10 12:25:22;;;;;;;;;;;26.60;99.90;;;;;;7333342;19;110310;-68
2023/08/10 12:27:49;;;;;;;;;;;26.70;99.90;;;;;;7329126;19;109814;-71
2023/08/10 12:30:16;;;;;;;;;;;26.80;99.90;;;;;;7336804;19;108669;-67
2023/08/10 12:32:43;;;;;;;;;;;26.80;99.90;;;;;;7329333;19;109473;-69
2023/08/10 12:35:12;;;;;;;;;;;27.00;99.90;;;;;;7331342;19;110439;-69
2023/08/10 12:37:39;;;;;;;;;;;27.20;99.90;;;;;;7334565;19;108654;-73
2023/08/10 12:40:08;;;;;;;;;;;27.40;99.90;;;;;;7337582;19;111323;-68
2023/08/10 12:42:35;;;;;;;;;;;27.50;99.90;;;;;;7332147;19;108521;-69
2023/08/10 12:45:02;;;;;;;;;;;27.50;99.90;;;;;;7335016;19;111385;-70
2023/08/10 12:47:29;;;;;;;;;;;27.50;99.90;;;;;;7330843;19;109371;-69
2023/08/10 12:49:56;;;;;;;;;;;27.40;99.90;;;;;;7337937;19;109610;-68
2023/08/10 12:52:23;;;;;;;;;;;27.30;99.90;;;;;;7331782;19;109093;-70
2023/08/10 12:54:50;;;;;;;;;;;27.20;99.90;;;;;;7333126;19;109157;-69
2023/08/10 12:57:18;;;;;;;;;;;27.40;99.90;;;;;;7331842;19;108348;-68
2023/08/10 12:59:45;;;;;;;;;;;27.60;99.90;;;;;;7330948;19;108237;-68
2023/08/10 13:02:12;;;;;;;;;;;27.80;99.90;;;;;;7337732;19;109559;-68
2023/08/10 13:04:57;;;;;;;;;;;28.10;99.90;;;;;;7337240;19;109354;-71
2023/08/10 13:07:24;;;;;;;;;;;28.40;99.90;;;;;;7331350;19;109105;-68
2023/08/10 13:09:52;;;;;;;;;;;28.60;99.90;;;;;;7334295;19;110054;-69
2023/08/10 13:12:19;;;;;;;;;;;28.80;99.90;;;;;;7330593;19;109817;-70
2023/08/10 13:14:46;;;;;;;;;;;28.90;99.90;;;;;;7331262;19;109819;-69
2023/08/10 13:17:13;;;;;;;;;;;28.80;99.90;;;;;;7329785;19;109140;-69
2023/08/10 13:19:43;;;;;;;;;;;28.80;99.90;;;;;;7329431;19;109757;-69
2023/08/10 13:22:11;;;;;;;;;;;29.00;99.90;;;;;;7326399;19;110028;-68
2023/08/10 13:24:38;;;;;;;;;;;29.00;99.90;;;;;;7335398;19;109323;-69
2023/08/10 13:27:07;;;;;;;;;;;29.10;99.90;;;;;;7330583;19;109231;-69
2023/08/10 13:29:34;;;;;;;;;;;29.20;99.90;;;;;;7329093;19;108858;-71
2023/08/10 13:32:01;;;;;;;;;;;29.20;99.90;;;;;;7331936;19;108539;-69
2023/08/10 13:34:28;;;;;;;;;;;29.30;99.90;;;;;;7329315;19;110170;-71
2023/08/10 13:36:55;;;;;;;;;;;29.20;99.40;;;;;;7331406;19;109538;-71
2023/08/10 13:39:26;;;;;;;;;;;29.00;97.80;;;;;;7332435;19;109040;-73
2023/08/10 13:41:53;;;;;;;;;;;28.80;98.90;;;;;;7330907;19;110038;-70
2023/08/10 13:44:21;;;;;;;;;;;28.80;99.90;;;;;;7329487;19;110141;-72
2023/08/10 13:46:48;;;;;;;;;;;28.80;99.90;;;;;;7335562;19;110017;-73
2023/08/10 13:49:15;;;;;;;;;;;29.10;99.90;;;;;;7333596;19;109885;-71
2023/08/10 13:51:44;;;;;;;;;;;29.40;98.00;;;;;;7328500;19;109109;-72
2023/08/10 13:54:11;;;;;;;;;;;29.40;98.90;;;;;;7335684;19;109233;-70
2023/08/10 13:56:57;;;;;;;;;;;29.50;99.80;;;;;;7329087;19;110960;-70
2023/08/10 13:59:28;;;;;;;;;;;29.70;99.90;;;;;;7335490;19;109655;-70
2023/08/10 14:01:56;;;;;;;;;;;29.90;99.90;;;;;;7338378;19;110247;-72
2023/08/10 14:04:23;;;;;;;;;;;30.10;98.90;;;;;;7337264;19;110427;-73
2023/08/10 14:06:50;;;;;;;;;;;30.00;99.30;;;;;;7338288;19;110365;-75
2023/08/10 14:09:19;;;;;;;;;;;30.00;98.10;;;;;;7341196;19;111394;-74
2023/08/10 14:11:47;;;;;;;;;;;30.10;99.90;;;;;;7339111;19;109247;-69
2023/08/10 14:14:16;;;;;;;;;;;30.20;99.20;;;;;;7336880;19;109367;-74
2023/08/10 14:16:44;;;;;;;;;;;30.30;99.40;;;;;;7338087;19;108574;-74
2023/08/10 14:19:15;;;;;;;;;;;30.60;98.40;;;;;;7339038;19;109462;-72